»·PEaware :: DLH423 KBOS-EDDF

DLH423 :: KBOS-EDDF

FLIGHT INFORMATION

Flight Status: Arrived
Operator:
Lufthansa
More flights by this operator :: More flights under this callsign
Pilot: Anonymous 14085 (14085)
Aircraft: BOEING 747-400 (WINGLETS)
(B744)
More flights by this aircraft type
Origin: KBOS Logan Intl
United States
Destination: EDDF Frankfurt/Main
Germany
More flights between these airports :: More routes between these airports
Route: EBONY N555A NEEKO/M085F370 5450N 5640N 5830N 5820N SUNOT KESIX IBROD/N0479F370 UMBEL LAMSO UL603 SOGPO UT149 OTSOP T149 LIPMI T150 ROLIS ROLI2M
File this flight plan on PilotEdge
Remarks: PBN / A1B1C1D1L1O1S2 DOF / 171203 REG / N488SB EET / KZBW0026 CZQX0059 CZUL0123 CZQX0129 EGGX0325 EGPX0441 EGTT0506 EHAA0540 EDVV0556 EDGG0603 OPR / DLH RALT / CYYR BIKF RMK / TCAS SIMBRIEF
Altitude:
(Current/Filed)
37,000ft
Speed:
(Current/Filed)
484kts
Departed: 02-Dec-17 05:37 PM
Arrived: 03-Dec-17 12:11 AM
Distance/Time
Traveled:
3177nm/6:34
Distance/Time
To Go:
Arrived

Flight Plot

Page will automatically refresh every two minutes.

Flight plan parsing failed; only flown route is shown


Map Options




Map Legend


Flown Route
Filed Route
Departure Airport
Arrival Airport
Navaid (VOR, NDB)
Fix

Horizontal Profiles

Position Reports

Time Latitude Longitude Heading Altitude Ground
Speed
02-Dec-17 17:15 42.370475 -71.017887 208 21ft 0kts
02-Dec-17 17:16 42.370475 -71.017887 208 21ft 0kts
02-Dec-17 17:17 42.370475 -71.017887 208 21ft 0kts
02-Dec-17 17:18 42.370475 -71.017887 208 21ft 0kts
02-Dec-17 17:19 42.370475 -71.017887 208 21ft 0kts
02-Dec-17 17:20 42.370475 -71.017887 208 21ft 0kts
02-Dec-17 17:21 42.370475 -71.017887 208 21ft 0kts
02-Dec-17 17:22 42.370475 -71.017887 208 21ft 0kts
02-Dec-17 17:23 42.370475 -71.017887 208 21ft 0kts
02-Dec-17 17:24 42.370475 -71.017887 208 21ft 0kts
02-Dec-17 17:25 42.370475 -71.017887 208 21ft 0kts
02-Dec-17 17:26 42.370475 -71.017887 208 21ft 0kts
02-Dec-17 17:27 42.370475 -71.017887 208 21ft 0kts
02-Dec-17 17:28 42.370475 -71.017887 208 21ft 0kts
02-Dec-17 17:29 42.370705 -71.017720 208 21ft 2kts
02-Dec-17 17:30 42.371203 -71.017738 132 21ft 2kts
02-Dec-17 17:31 42.371256 -71.017869 120 21ft 0kts
02-Dec-17 17:32 42.371256 -71.017869 120 21ft 0kts
02-Dec-17 17:33 42.371212 -71.015883 132 21ft 15kts
02-Dec-17 17:34 42.368050 -71.011657 144 21ft 21kts
02-Dec-17 17:35 42.362376 -71.013780 200 21ft 20kts
02-Dec-17 17:36 42.358172 -71.015656 200 21ft 3kts
02-Dec-17 17:37 42.355737 -71.017007 200 21ft 17kts
02-Dec-17 17:38 42.352218 -71.012524 125 21ft 21kts
02-Dec-17 17:39 42.352488 -71.011096 19 21ft 0kts
02-Dec-17 17:40 42.352488 -71.011096 19 21ft 0kts
02-Dec-17 17:41 42.352551 -71.011066 19 21ft 0kts
02-Dec-17 17:42 42.372481 -71.001436 19 315ft 162kts
02-Dec-17 17:43 42.406541 -70.963019 51 1766ft 200kts
02-Dec-17 17:44 42.446738 -70.897756 48 3918ft 255kts
02-Dec-17 17:45 42.495021 -70.824518 47 7011ft 270kts
02-Dec-17 17:46 42.546239 -70.749308 43 10078ft 278kts
02-Dec-17 17:47 42.606180 -70.663134 44 11040ft 363kts
02-Dec-17 17:48 42.681631 -70.554174 44 13115ft 412kts
02-Dec-17 17:49 42.762032 -70.437539 43 15837ft 434kts
02-Dec-17 17:50 42.844759 -70.317504 44 18333ft 452kts
02-Dec-17 17:51 42.931615 -70.189656 44 20546ft 471kts
02-Dec-17 17:52 43.022088 -70.056719 43 22624ft 488kts
02-Dec-17 17:53 43.115971 -69.918879 43 24571ft 505kts
02-Dec-17 17:54 43.212726 -69.777908 43 26376ft 521kts
02-Dec-17 17:55 43.312407 -69.630657 44 28114ft 538kts
02-Dec-17 17:56 43.414455 -69.478057 44 29989ft 549kts
02-Dec-17 17:57 43.516745 -69.324182 45 32119ft 550kts
02-Dec-17 17:58 43.618949 -69.168572 45 33881ft 551kts
02-Dec-17 17:59 43.720637 -69.013382 45 35265ft 539kts
02-Dec-17 18:00 43.804453 -68.885502 44 35289ft 544kts
02-Dec-17 18:01 43.905655 -68.730607 44 35291ft 544kts
02-Dec-17 18:02 44.006739 -68.574991 44 35298ft 544kts
02-Dec-17 18:03 44.090651 -68.445002 44 35322ft 544kts
02-Dec-17 18:04 44.189476 -68.292436 45 35309ft 544kts
02-Dec-17 18:05 44.305095 -68.111213 44 35320ft 537kts
02-Dec-17 18:06 44.385847 -67.983561 44 35316ft 529kts
02-Dec-17 18:07 44.499616 -67.803785 44 35315ft 529kts
02-Dec-17 18:08 44.578544 -67.678354 44 35316ft 528kts
02-Dec-17 18:09 44.675316 -67.523513 44 35167ft 527kts
02-Dec-17 18:10 44.771283 -67.369087 44 35004ft 527kts
02-Dec-17 18:11 44.866137 -67.214839 45 34987ft 527kts
02-Dec-17 18:12 44.965912 -67.069969 36 34997ft 518kts
02-Dec-17 18:13 45.076367 -66.940455 34 34989ft 518kts
02-Dec-17 18:14 45.185226 -66.810406 35 34991ft 519kts
02-Dec-17 18:15 45.293740 -66.676892 36 34993ft 518kts
02-Dec-17 18:16 45.401821 -66.542089 36 34994ft 518kts
02-Dec-17 18:17 45.509324 -66.407521 36 35128ft 523kts
02-Dec-17 18:18 45.617807 -66.270837 37 35282ft 531kts
02-Dec-17 18:19 45.727477 -66.130590 37 35313ft 530kts
02-Dec-17 18:20 45.837487 -65.990539 37 35314ft 529kts
02-Dec-17 18:21 45.947180 -65.850569 37 35316ft 529kts
02-Dec-17 18:22 46.056466 -65.710187 37 35292ft 529kts
02-Dec-17 18:23 46.165357 -65.569997 37 35290ft 529kts
02-Dec-17 18:24 46.274891 -65.429223 37 35292ft 529kts
02-Dec-17 18:25 46.383581 -65.287034 38 35284ft 530kts
02-Dec-17 18:26 46.491465 -65.143573 38 35285ft 530kts
02-Dec-17 18:27 46.600225 -64.999495 38 35287ft 530kts
02-Dec-17 18:28 46.708930 -64.855266 38 35078ft 530kts
02-Dec-17 18:29 46.817623 -64.709990 38 34993ft 531kts
02-Dec-17 18:30 46.926006 -64.564218 38 34994ft 531kts
02-Dec-17 18:31 47.033915 -64.418241 38 34996ft 530kts
02-Dec-17 18:32 47.141397 -64.271948 39 34986ft 531kts
02-Dec-17 18:33 47.249147 -64.124933 39 34987ft 530kts
02-Dec-17 18:34 47.356830 -63.977019 39 34989ft 531kts
02-Dec-17 18:35 47.464433 -63.828026 39 34991ft 531kts
02-Dec-17 18:36 47.571765 -63.678552 39 34992ft 531kts
02-Dec-17 18:37 47.678417 -63.529225 39 34994ft 531kts
02-Dec-17 18:38 47.785551 -63.378352 39 34995ft 531kts
02-Dec-17 18:39 47.891747 -63.226862 40 34988ft 532kts
02-Dec-17 18:40 47.997901 -63.074385 40 34990ft 532kts
02-Dec-17 18:41 48.104144 -62.922009 40 34991ft 532kts
02-Dec-17 18:42 48.210980 -62.769714 40 34990ft 532kts
02-Dec-17 18:43 48.317368 -62.616258 40 34992ft 533kts
02-Dec-17 18:44 48.423321 -62.461361 40 34994ft 533kts
02-Dec-17 18:45 48.528906 -62.305863 41 34986ft 533kts
02-Dec-17 18:46 48.634287 -62.148538 41 34988ft 533kts
02-Dec-17 18:47 48.739772 -61.991152 41 34990ft 533kts
02-Dec-17 18:48 48.845015 -61.833733 41 34992ft 534kts
02-Dec-17 18:49 48.950381 -61.675095 42 34990ft 537kts
02-Dec-17 18:50 49.056768 -61.513740 43 34998ft 542kts
02-Dec-17 18:51 49.162772 -61.352650 43 34991ft 542kts
02-Dec-17 18:52 49.268688 -61.190670 44 34973ft 538kts
02-Dec-17 18:53 49.374379 -61.026688 44 34988ft 542kts
02-Dec-17 18:54 49.479946 -60.862304 44 34990ft 542kts
02-Dec-17 18:55 49.585455 -60.697126 44 34992ft 542kts
02-Dec-17 18:56 49.690512 -60.531569 44 35183ft 541kts
02-Dec-17 18:57 49.795300 -60.365265 44 35275ft 541kts
02-Dec-17 18:58 49.898900 -60.198610 45 35025ft 540kts
02-Dec-17 18:59 50.002607 -60.030925 45 34995ft 543kts
02-Dec-17 19:00 50.106791 -59.862379 45 34993ft 542kts
02-Dec-17 19:01 50.211262 -59.694403 44 34989ft 541kts
02-Dec-17 19:02 50.315307 -59.524786 45 34991ft 541kts
02-Dec-17 19:03 50.418364 -59.354331 45 34993ft 541kts
02-Dec-17 19:04 50.520186 -59.183659 46 34988ft 541kts
02-Dec-17 19:05 50.622721 -59.011148 46 34990ft 541kts
02-Dec-17 19:06 50.724991 -58.838918 46 34992ft 542kts
02-Dec-17 19:07 50.827345 -58.665343 46 34994ft 541kts
02-Dec-17 19:08 50.929251 -58.491117 46 34996ft 541kts
02-Dec-17 19:09 51.029641 -58.318250 47 34992ft 541kts
02-Dec-17 19:10 51.128963 -58.144953 46 35015ft 541kts
02-Dec-17 19:11 51.230768 -57.969293 46 35198ft 540kts
02-Dec-17 19:12 51.331761 -57.792683 47 35232ft 540kts
02-Dec-17 19:13 51.432230 -57.614648 47 35234ft 540kts
02-Dec-17 19:14 51.531841 -57.436897 46 35237ft 537kts
02-Dec-17 19:15 51.630555 -57.259454 48 35232ft 537kts
02-Dec-17 19:16 51.729111 -57.079939 47 35234ft 537kts
02-Dec-17 19:17 51.827843 -56.900030 47 35235ft 537kts
02-Dec-17 19:18 51.926283 -56.719784 47 35261ft 537kts
02-Dec-17 19:19 52.024749 -56.538039 47 35266ft 537kts
02-Dec-17 19:20 52.122070 -56.357006 47 35260ft 537kts
02-Dec-17 19:21 52.220412 -56.174155 48 35256ft 537kts
02-Dec-17 19:22 52.317478 -55.990699 48 35258ft 537kts
02-Dec-17 19:23 52.412306 -55.802631 56 35262ft 537kts
02-Dec-17 19:24 52.481646 -55.587125 66 35262ft 536kts
02-Dec-17 19:25 52.544058 -55.364740 64 35264ft 536kts
02-Dec-17 19:26 52.609487 -55.145058 64 35259ft 536kts
02-Dec-17 19:27 52.675637 -54.925544 64 35261ft 536kts
02-Dec-17 19:28 52.741362 -54.704765 64 35263ft 536kts
02-Dec-17 19:29 52.806256 -54.483995 64 35265ft 536kts
02-Dec-17 19:30 52.870877 -54.261891 65 35261ft 536kts
02-Dec-17 19:31 52.934640 -54.039724 65 35262ft 536kts
02-Dec-17 19:32 52.998513 -53.816115 65 35264ft 536kts
02-Dec-17 19:33 53.061824 -53.592836 65 35266ft 536kts
02-Dec-17 19:34 53.125124 -53.368355 65 35261ft 536kts
02-Dec-17 19:35 53.188337 -53.144777 66 35256ft 536kts
02-Dec-17 19:36 53.250325 -52.919729 66 35258ft 536kts
02-Dec-17 19:37 53.311822 -52.693509 66 35260ft 536kts
02-Dec-17 19:38 53.373107 -52.466364 66 35262ft 536kts
02-Dec-17 19:39 53.433821 -52.238927 67 35258ft 536kts
02-Dec-17 19:40 53.493927 -52.010356 67 35259ft 536kts
02-Dec-17 19:41 53.553719 -51.781816 67 35260ft 536kts
02-Dec-17 19:42 53.613133 -51.552844 67 35263ft 536kts
02-Dec-17 19:43 53.672322 -51.322284 68 35261ft 536kts
02-Dec-17 19:44 53.730391 -51.092201 68 35261ft 536kts
02-Dec-17 19:45 53.788460 -50.860703 68 35262ft 536kts
02-Dec-17 19:46 53.846217 -50.628874 68 35264ft 535kts
02-Dec-17 19:47 53.903414 -50.396613 68 35266ft 535kts
02-Dec-17 19:48 53.960013 -50.163545 69 35262ft 535kts
02-Dec-17 19:49 54.016868 -49.929936 68 35264ft 535kts
02-Dec-17 19:50 54.074820 -49.697310 68 35266ft 535kts
02-Dec-17 19:51 54.133415 -49.464323 67 35260ft 535kts
02-Dec-17 19:52 54.191876 -49.231266 69 36302ft 534kts
02-Dec-17 19:53 54.248187 -48.998771 69 37250ft 530kts
02-Dec-17 19:54 54.303952 -48.765662 69 37260ft 531kts
02-Dec-17 19:55 54.359615 -48.531513 69 37261ft 531kts
02-Dec-17 19:56 54.414909 -48.296279 71 37256ft 543kts
02-Dec-17 19:57 54.470484 -48.056097 71 37259ft 543kts
02-Dec-17 19:58 54.525881 -47.814562 71 37261ft 544kts
02-Dec-17 19:59 54.581105 -47.571750 71 37264ft 544kts
02-Dec-17 20:00 54.635766 -47.328625 73 37263ft 545kts
02-Dec-17 20:01 54.689844 -47.083735 73 37255ft 544kts
02-Dec-17 20:02 54.743235 -46.839809 73 37264ft 545kts
02-Dec-17 20:03 54.796525 -46.594174 73 37267ft 545kts
02-Dec-17 20:04 54.849182 -46.348577 74 37189ft 545kts
02-Dec-17 20:05 54.901173 -46.101985 74 37184ft 545kts
02-Dec-17 20:06 54.952698 -45.854715 74 37186ft 545kts
02-Dec-17 20:07 55.003988 -45.606489 74 37187ft 545kts
02-Dec-17 20:08 55.054524 -45.359020 74 37191ft 545kts
02-Dec-17 20:09 55.104431 -45.110272 75 37181ft 544kts
02-Dec-17 20:10 55.155249 -44.861007 74 37174ft 545kts
02-Dec-17 20:11 55.204854 -44.611786 75 37177ft 544kts
02-Dec-17 20:12 55.253374 -44.360907 75 37179ft 544kts
02-Dec-17 20:13 55.301121 -44.109928 76 37175ft 544kts
02-Dec-17 20:14 55.348524 -43.858177 76 37177ft 544kts
02-Dec-17 20:15 55.387800 -43.647759 76 37179ft 544kts
02-Dec-17 20:16 55.442212 -43.352370 76 37183ft 544kts
02-Dec-17 20:17 55.480272 -43.141896 77 37178ft 543kts
02-Dec-17 20:18 55.532996 -42.846378 77 37180ft 543kts
02-Dec-17 20:19 55.577909 -42.591874 77 37182ft 543kts
02-Dec-17 20:20 55.614973 -42.379173 77 37184ft 543kts
02-Dec-17 20:21 55.665864 -42.081551 78 37188ft 547kts
02-Dec-17 20:22 55.701868 -41.868327 78 37184ft 543kts
02-Dec-17 20:23 55.744540 -41.612730 78 37185ft 542kts
02-Dec-17 20:24 55.786820 -41.355940 78 37187ft 542kts
02-Dec-17 20:25 55.828355 -41.098943 79 37183ft 542kts
02-Dec-17 20:26 55.869314 -40.841654 79 37185ft 542kts
02-Dec-17 20:27 55.909970 -40.583446 79 37188ft 542kts
02-Dec-17 20:28 55.950015 -40.325260 80 37187ft 541kts
02-Dec-17 20:29 55.989534 -40.066230 79 37186ft 541kts
02-Dec-17 20:30 56.041030 -39.812753 69 37189ft 548kts
02-Dec-17 20:31 56.106297 -39.565999 68 37183ft 549kts
02-Dec-17 20:32 56.170640 -39.318080 70 37174ft 548kts
02-Dec-17 20:33 56.231495 -39.068207 70 37174ft 548kts
02-Dec-17 20:34 56.291407 -38.817036 70 37177ft 548kts
02-Dec-17 20:35 56.351403 -38.564660 70 37179ft 548kts
02-Dec-17 20:36 56.410209 -38.314859 71 37177ft 547kts
02-Dec-17 20:37 56.468710 -38.062068 71 37178ft 547kts
02-Dec-17 20:38 56.526918 -37.807885 71 37180ft 547kts
02-Dec-17 20:39 56.584695 -37.553380 71 37183ft 547kts
02-Dec-17 20:40 56.642000 -37.297854 72 37179ft 546kts
02-Dec-17 20:41 56.698505 -37.041460 72 37181ft 546kts
02-Dec-17 20:42 56.754509 -36.784861 72 37184ft 547kts
02-Dec-17 20:43 56.810029 -36.528003 72 37186ft 547kts
02-Dec-17 20:44 56.865172 -36.269546 73 37181ft 546kts
02-Dec-17 20:45 56.919470 -36.010519 73 37185ft 546kts
02-Dec-17 20:46 56.973305 -35.751232 73 37187ft 546kts
02-Dec-17 20:47 57.026733 -35.491141 73 37190ft 546kts
02-Dec-17 20:48 57.079514 -35.230362 71 37170ft 552kts
02-Dec-17 20:49 57.133750 -34.960989 70 37175ft 562kts
02-Dec-17 20:50 57.188039 -34.692286 71 37178ft 562kts
02-Dec-17 20:51 57.241063 -34.420367 71 37182ft 562kts
02-Dec-17 20:52 57.292906 -34.148495 72 37175ft 562kts
02-Dec-17 20:53 57.344304 -33.875503 72 37178ft 562kts
02-Dec-17 20:54 57.395235 -33.602640 72 37181ft 562kts
02-Dec-17 20:55 57.445759 -33.327941 73 37181ft 562kts
02-Dec-17 20:56 57.495252 -33.053266 72 37178ft 563kts
02-Dec-17 20:57 57.544301 -32.777735 72 37181ft 563kts
02-Dec-17 20:58 57.592972 -32.501146 72 37184ft 563kts
02-Dec-17 20:59 57.640976 -32.223773 73 37178ft 562kts
02-Dec-17 21:00 57.687743 -31.948017 72 37153ft 550kts
02-Dec-17 21:01 57.733692 -31.674211 72 37128ft 553kts
02-Dec-17 21:02 57.779175 -31.399631 72 37131ft 553kts
02-Dec-17 21:03 57.823783 -31.124616 73 37125ft 553kts
02-Dec-17 21:04 57.867929 -30.848088 73 37128ft 553kts
02-Dec-17 21:05 57.911218 -30.573874 70 37110ft 551kts
02-Dec-17 21:06 57.935902 -30.416208 73 37131ft 553kts
02-Dec-17 21:07 57.977997 -30.141933 74 37126ft 554kts
02-Dec-17 21:08 58.006252 -29.925256 82 37130ft 553kts
02-Dec-17 21:09 58.015830 -29.684105 89 37130ft 552kts
02-Dec-17 21:10 58.020179 -29.441241 88 37132ft 552kts
02-Dec-17 21:11 58.027268 -29.198381 88 37126ft 552kts
02-Dec-17 21:12 58.033542 -29.015083 88 37127ft 552kts
02-Dec-17 21:13 58.039876 -28.822350 88 37129ft 553kts
02-Dec-17 21:14 58.045204 -28.643758 88 37130ft 553kts
02-Dec-17 21:15 58.051527 -28.412428 88 37132ft 553kts
02-Dec-17 21:16 58.057056 -28.194944 89 37126ft 553kts
02-Dec-17 21:17 58.063609 -27.920268 87 37117ft 559kts
02-Dec-17 21:18 58.069843 -27.637778 89 37133ft 553kts
02-Dec-17 21:19 58.075487 -27.347918 90 37133ft 553kts
02-Dec-17 21:20 58.080423 -27.058491 90 37127ft 553kts
02-Dec-17 21:21 58.084781 -26.768246 90 37129ft 553kts
02-Dec-17 21:22 58.088447 -26.480938 90 37132ft 554kts
02-Dec-17 21:23 58.091441 -26.196353 90 37126ft 554kts
02-Dec-17 21:24 58.093788 -25.907952 90 37142ft 560kts
02-Dec-17 21:25 58.095365 -25.650647 90 37132ft 554kts
02-Dec-17 21:26 58.096398 -25.398891 90 37133ft 554kts
02-Dec-17 21:27 58.096975 -25.114666 91 37126ft 554kts
02-Dec-17 21:28 58.096932 -24.842133 91 37128ft 554kts
02-Dec-17 21:29 58.096236 -24.551971 91 37131ft 554kts
02-Dec-17 21:30 58.095383 -24.355616 91 37133ft 554kts
02-Dec-17 21:31 58.093932 -24.117689 92 37126ft 554kts
02-Dec-17 21:32 58.091632 -23.826925 90 37171ft 560kts
02-Dec-17 21:33 58.088686 -23.536525 92 38645ft 553kts
02-Dec-17 21:34 58.085020 -23.247941 93 39128ft 551kts
02-Dec-17 21:35 58.080740 -22.958635 93 39127ft 551kts
02-Dec-17 21:36 58.075840 -22.670111 93 39130ft 551kts
02-Dec-17 21:37 58.070218 -22.381157 93 39133ft 551kts
02-Dec-17 21:38 58.063994 -22.093231 94 39126ft 551kts
02-Dec-17 21:39 58.057150 -21.804430 94 39129ft 551kts
02-Dec-17 21:40 58.049603 -21.516307 94 39131ft 551kts
02-Dec-17 21:41 58.041403 -21.228716 95 39125ft 551kts
02-Dec-17 21:42 58.032615 -20.939973 95 39127ft 551kts
02-Dec-17 21:43 58.023186 -20.652050 95 39130ft 551kts
02-Dec-17 21:44 58.013075 -20.364683 95 39133ft 551kts
02-Dec-17 21:45 58.002542 -20.077145 96 39126ft 551kts
02-Dec-17 21:46 57.971583 -19.797404 113 39130ft 543kts
02-Dec-17 21:47 57.918028 -19.532794 114 39131ft 542kts
02-Dec-17 21:48 57.867205 -19.266843 113 39122ft 542kts
02-Dec-17 21:49 57.818956 -18.999045 112 39320ft 543kts
02-Dec-17 21:50 57.769785 -18.732618 113 39345ft 542kts
02-Dec-17 21:51 57.719621 -18.467499 113 39347ft 542kts
02-Dec-17 21:52 57.669588 -18.205960 113 39341ft 541kts
02-Dec-17 21:53 57.618593 -17.941531 114 39342ft 541kts
02-Dec-17 21:54 57.566883 -17.678502 114 39344ft 541kts
02-Dec-17 21:55 57.514651 -17.416713 114 39347ft 541kts
02-Dec-17 21:56 57.461998 -17.155235 113 39339ft 541kts
02-Dec-17 21:57 57.408134 -16.890933 111 39342ft 549kts
02-Dec-17 21:58 57.353396 -16.626778 110 39349ft 547kts
02-Dec-17 21:59 57.300514 -16.375452 108 39353ft 526kts
02-Dec-17 22:00 57.247290 -16.123560 109 39343ft 526kts
02-Dec-17 22:01 57.193786 -15.874172 109 39707ft 525kts
02-Dec-17 22:02 57.139458 -15.624991 109 40621ft 524kts
02-Dec-17 22:03 57.084976 -15.378159 109 41346ft 518kts
02-Dec-17 22:04 57.042496 -15.186909 110 41344ft 522kts
02-Dec-17 22:05 56.995054 -14.957267 100 41351ft 518kts
02-Dec-17 22:06 56.982391 -14.741379 88 41348ft 512kts
02-Dec-17 22:07 56.976328 -14.481115 90 41348ft 513kts
02-Dec-17 22:08 56.965630 -14.267828 92 41345ft 515kts
02-Dec-17 22:09 56.950735 -14.012263 93 41346ft 515kts
02-Dec-17 22:10 56.930422 -13.769874 97 41343ft 519kts
02-Dec-17 22:11 56.907793 -13.550989 97 41335ft 515kts
02-Dec-17 22:12 56.882644 -13.312307 98 41338ft 518kts
02-Dec-17 22:13 56.855427 -13.055254 97 41338ft 518kts
02-Dec-17 22:14 56.829106 -12.802825 97 41340ft 518kts
02-Dec-17 22:15 56.804222 -12.567748 97 41341ft 518kts
02-Dec-17 22:16 56.779835 -12.342670 98 41342ft 518kts
02-Dec-17 22:17 56.755689 -12.123701 98 41339ft 518kts
02-Dec-17 22:18 56.728484 -11.880777 98 41340ft 518kts
02-Dec-17 22:19 56.702740 -11.655270 98 41341ft 518kts
02-Dec-17 22:20 56.675408 -11.420856 98 41338ft 516kts
02-Dec-17 22:21 56.648904 -11.197013 99 41340ft 519kts
02-Dec-17 22:22 56.623535 -10.984825 99 41341ft 519kts
02-Dec-17 22:23 56.592778 -10.733043 99 41342ft 520kts
02-Dec-17 22:24 56.561921 -10.485634 99 41343ft 520kts
02-Dec-17 22:25 56.532435 -10.252486 100 41340ft 527kts
02-Dec-17 22:26 56.502647 -10.020439 101 41341ft 527kts
02-Dec-17 22:27 56.462040 -9.797798 109 41343ft 530kts
02-Dec-17 22:28 56.412076 -9.574743 109 41345ft 530kts
02-Dec-17 22:29 56.362158 -9.346237 109 41370ft 528kts
02-Dec-17 22:30 56.311345 -9.107283 109 41370ft 530kts
02-Dec-17 22:31 56.263579 -8.885540 109 41371ft 530kts
02-Dec-17 22:32 56.228968 -8.727627 109 41372ft 530kts
02-Dec-17 22:33 56.165995 -8.443873 109 41374ft 530kts
02-Dec-17 22:34 56.115397 -8.217852 110 41371ft 530kts
02-Dec-17 22:35 56.080265 -8.061640 110 41372ft 530kts
02-Dec-17 22:36 56.037839 -7.874936 110 41373ft 530kts
02-Dec-17 22:37 55.976539 -7.609784 109 41377ft 517kts
02-Dec-17 22:38 55.922847 -7.379468 109 41376ft 518kts
02-Dec-17 22:39 55.881720 -7.204638 110 41362ft 521kts
02-Dec-17 22:40 55.827743 -6.982518 110 41362ft 521kts
02-Dec-17 22:41 55.783433 -6.799776 110 41340ft 521kts
02-Dec-17 22:42 55.728384 -6.572127 110 41341ft 521kts
02-Dec-17 22:43 55.687349 -6.403743 110 41342ft 521kts
02-Dec-17 22:44 55.639128 -6.207516 111 41340ft 522kts
02-Dec-17 22:45 55.586703 -5.995790 111 41341ft 522kts
02-Dec-17 22:46 55.537183 -5.798160 111 41393ft 522kts
02-Dec-17 22:47 55.480984 -5.576676 111 41394ft 522kts
02-Dec-17 22:48 55.425349 -5.359679 111 41399ft 522kts
02-Dec-17 22:49 55.370089 -5.144727 112 41384ft 523kts
02-Dec-17 22:50 55.319733 -4.950550 112 41345ft 523kts
02-Dec-17 22:51 55.270084 -4.761812 112 41345ft 523kts
02-Dec-17 22:52 55.216400 -4.559741 112 41346ft 523kts
02-Dec-17 22:53 55.159464 -4.347369 113 41347ft 523kts
02-Dec-17 22:54 55.099781 -4.125380 112 41345ft 523kts
02-Dec-17 22:55 55.038299 -3.899099 113 41347ft 523kts
02-Dec-17 22:56 54.978081 -3.680867 113 41304ft 522kts
02-Dec-17 22:57 54.918449 -3.466901 112 41269ft 521kts
02-Dec-17 22:58 54.862383 -3.268707 114 41257ft 521kts
02-Dec-17 22:59 54.804990 -3.069251 113 41279ft 521kts
02-Dec-17 23:00 54.747910 -2.869724 113 41286ft 521kts
02-Dec-17 23:01 54.692793 -2.677869 113 41287ft 520kts
02-Dec-17 23:02 54.644678 -2.511677 113 41271ft 520kts
02-Dec-17 23:03 54.594513 -2.340047 114 41262ft 520kts
02-Dec-17 23:04 54.556845 -2.211847 114 41260ft 520kts
02-Dec-17 23:05 54.516494 -2.074856 114 41257ft 511kts
02-Dec-17 23:06 54.496068 -2.005836 114 41261ft 512kts
02-Dec-17 23:07 54.441676 -1.823146 114 41262ft 513kts
02-Dec-17 23:08 54.376351 -1.606435 114 41263ft 513kts
02-Dec-17 23:09 54.310733 -1.390835 114 41264ft 513kts
02-Dec-17 23:10 54.245142 -1.176116 114 41288ft 513kts
02-Dec-17 23:11 54.178890 -0.961166 114 41283ft 513kts
02-Dec-17 23:12 54.111939 -0.747156 115 41278ft 513kts
02-Dec-17 23:13 54.044689 -0.534267 115 41266ft 513kts
02-Dec-17 23:14 53.974172 -0.323235 118 41265ft 515kts
02-Dec-17 23:15 53.900832 -0.115353 118 41266ft 515kts
02-Dec-17 23:16 53.827399 0.088345 118 41258ft 515kts
02-Dec-17 23:17 53.753249 0.294187 118 41259ft 515kts
02-Dec-17 23:18 53.679078 0.500742 118 41260ft 515kts
02-Dec-17 23:19 53.604911 0.705783 118 41262ft 512kts
02-Dec-17 23:20 53.530674 0.909126 118 41260ft 512kts
02-Dec-17 23:21 53.456357 1.110597 118 41261ft 512kts
02-Dec-17 23:22 53.381242 1.312854 118 41262ft 512kts
02-Dec-17 23:23 53.305989 1.514036 118 41263ft 512kts
02-Dec-17 23:24 53.232152 1.709977 118 41264ft 512kts
02-Dec-17 23:25 53.156493 1.910115 118 41264ft 512kts
02-Dec-17 23:26 53.080122 2.109630 119 41212ft 512kts
02-Dec-17 23:27 53.003778 2.306911 118 41214ft 508kts
02-Dec-17 23:28 52.927516 2.502836 118 41213ft 508kts
02-Dec-17 23:29 52.850658 2.697462 122 41205ft 526kts
02-Dec-17 23:30 52.771319 2.896841 126 41206ft 514kts
02-Dec-17 23:31 52.704375 3.094868 116 41206ft 479kts
02-Dec-17 23:32 52.659478 3.305334 112 41208ft 504kts
02-Dec-17 23:33 52.592731 3.510994 127 41217ft 526kts
02-Dec-17 23:34 52.502489 3.692525 126 41232ft 514kts
02-Dec-17 23:35 52.416248 3.872982 123 41214ft 507kts
02-Dec-17 23:36 52.331612 4.056568 123 41233ft 507kts
02-Dec-17 23:37 52.246801 4.238157 123 41234ft 507kts
02-Dec-17 23:38 52.160958 4.419748 123 41235ft 507kts
02-Dec-17 23:39 52.075603 4.598999 123 41236ft 507kts
02-Dec-17 23:40 51.992523 4.773151 124 41239ft 506kts
02-Dec-17 23:41 51.906849 4.952009 124 41267ft 506kts
02-Dec-17 23:42 51.823866 5.120802 124 41257ft 506kts
02-Dec-17 23:43 51.737785 5.294698 124 41258ft 505kts
02-Dec-17 23:44 51.651001 5.471155 124 41258ft 505kts
02-Dec-17 23:45 51.564636 5.645795 124 41260ft 504kts
02-Dec-17 23:46 51.482629 5.811162 124 40676ft 511kts
02-Dec-17 23:47 51.396654 5.983142 124 38619ft 502kts
02-Dec-17 23:48 51.310799 6.152880 123 36590ft 501kts
02-Dec-17 23:49 51.223744 6.323985 123 34542ft 503kts
02-Dec-17 23:50 51.137128 6.493174 122 32513ft 505kts
02-Dec-17 23:51 51.049619 6.662969 124 30458ft 511kts
02-Dec-17 23:52 50.962320 6.832040 123 28405ft 499kts
02-Dec-17 23:53 50.880154 6.989649 124 26469ft 491kts
02-Dec-17 23:54 50.797771 7.143834 124 24496ft 479kts
02-Dec-17 23:55 50.715260 7.298808 124 22519ft 464kts
02-Dec-17 23:56 50.635934 7.448238 124 20624ft 448kts
02-Dec-17 23:57 50.558616 7.593023 124 18794ft 434kts
02-Dec-17 23:58 50.486621 7.727449 124 17110ft 423kts
02-Dec-17 23:59 50.416040 7.858792 125 15454ft 405kts
03-Dec-17 00:00 50.345185 7.989653 126 13825ft 400kts
03-Dec-17 00:01 50.275460 8.117395 124 12236ft 388kts
03-Dec-17 00:02 50.252517 8.269743 84 11061ft 341kts
03-Dec-17 00:03 50.259372 8.406413 81 10373ft 295kts
03-Dec-17 00:04 50.264745 8.525465 83 9188ft 281kts
03-Dec-17 00:05 50.269438 8.647336 85 7609ft 282kts
03-Dec-17 00:06 50.273566 8.764910 87 6091ft 283kts
03-Dec-17 00:07 50.245731 8.856257 150 5339ft 253kts
03-Dec-17 00:08 50.188868 8.896967 159 4776ft 220kts
03-Dec-17 00:09 50.137207 8.925651 179 4294ft 185kts
03-Dec-17 00:10 50.112437 8.877642 251 4126ft 191kts
03-Dec-17 00:11 50.094933 8.812162 245 4051ft 191kts
03-Dec-17 00:12 50.077926 8.744364 247 3946ft 170kts
03-Dec-17 00:13 50.064513 8.691576 248 2692ft 151kts
03-Dec-17 00:14 50.051556 8.635416 247 931ft 153kts
03-Dec-17 00:15 50.039466 8.584121 249 396ft 152kts
03-Dec-17 00:16 50.032976 8.556797 265 378ft 40kts
03-Dec-17 00:17 50.037370 8.546764 337 378ft 3kts
03-Dec-17 00:18 50.037756 8.547792 73 378ft 13kts
03-Dec-17 00:19 50.039551 8.555617 70 378ft 27kts
03-Dec-17 00:20 50.041628 8.560695 337 378ft 17kts
03-Dec-17 00:21 50.045234 8.559545 17 378ft 16kts
03-Dec-17 00:22 50.047187 8.565203 341 378ft 13kts
03-Dec-17 00:23 50.047734 8.564917 342 378ft 0kts
03-Dec-17 00:24 50.047734 8.564917 342 378ft 0kts
03-Dec-17 00:25 50.047734 8.564917 342 378ft 0kts
03-Dec-17 00:26 50.047734 8.564917 342 378ft 0kts

Navigation Log

Ident Type
Flight plan parsing failed, navigation log unavailable